createdAt,value
2019-03-11T00:01:52.468Z,15.78
2019-03-11T00:06:56.897Z,14.68
2019-03-11T00:12:00.441Z,5.25
2019-03-11T00:17:03.915Z,4.20
2019-03-11T00:22:07.257Z,5.55
2019-03-11T00:27:11.918Z,3.75
2019-03-11T00:32:15.673Z,7.72
2019-03-11T00:37:21.018Z,6.12
2019-03-11T00:42:24.967Z,2.30
2019-03-11T00:47:28.567Z,1.42
2019-03-11T00:52:32.443Z,1.85
2019-03-11T00:57:35.859Z,4.17
2019-03-11T01:02:39.523Z,5.37
2019-03-11T01:07:43.170Z,2.02
2019-03-11T01:12:46.552Z,4.45
2019-03-11T01:17:50.056Z,9.95
2019-03-11T01:22:53.996Z,5.37
2019-03-11T01:27:57.754Z,6.80
2019-03-11T01:33:01.365Z,6.08
2019-03-11T01:38:04.581Z,2.42
2019-03-11T01:43:07.885Z,6.53
2019-03-11T01:48:11.216Z,4.97
2019-03-11T01:53:17.772Z,3.95
2019-03-11T01:58:21.455Z,4.40
2019-03-11T02:03:25.684Z,8.38
2019-03-11T02:08:29.889Z,7.22
2019-03-11T02:13:34.176Z,2.45
2019-03-11T02:18:37.793Z,7.37
2019-03-11T02:23:44.068Z,5.12
2019-03-11T02:29:01.602Z,3.62
2019-03-11T02:34:05.893Z,8.10
2019-03-11T02:39:09.769Z,15.98
2019-03-11T02:44:13.954Z,10.68
2019-03-11T02:49:19.434Z,18.48
2019-03-11T02:54:22.880Z,6.60
2019-03-11T02:59:27.355Z,9.55
2019-03-11T03:04:36.164Z,6.15
2019-03-11T03:09:39.872Z,9.20
2019-03-11T03:14:43.573Z,12.25
2019-03-11T03:19:46.924Z,10.45
2019-03-11T03:24:51.058Z,18.00
2019-03-11T03:29:54.416Z,16.00
2019-03-11T03:34:58.526Z,16.10
2019-03-11T03:40:03.487Z,26.23
2019-03-11T03:45:25.187Z,25.37
2019-03-11T03:50:31.522Z,14.05
2019-03-11T03:55:34.906Z,13.47
2019-03-11T04:00:38.596Z,7.22
2019-03-11T04:05:42.768Z,17.45
2019-03-11T04:10:46.127Z,12.58
2019-03-11T04:15:49.836Z,12.82
2019-03-11T04:20:55.495Z,29.30
2019-03-11T04:25:58.921Z,13.72
2019-03-11T04:31:02.255Z,21.65
2019-03-11T04:36:05.607Z,18.77
2019-03-11T04:41:09.377Z,6.75
2019-03-11T04:46:14.732Z,11.57
2019-03-11T04:51:18.252Z,13.85
2019-03-11T04:56:21.724Z,17.35
2019-03-11T05:01:25.889Z,10.58
2019-03-11T05:06:29.186Z,15.13
2019-03-11T05:11:33.234Z,30.85
2019-03-11T05:16:36.554Z,12.73
2019-03-11T05:21:39.884Z,18.70
2019-03-11T05:26:43.505Z,15.78
2019-03-11T05:31:47.098Z,19.95
2019-03-11T05:36:50.434Z,17.45
2019-03-11T05:41:54.077Z,12.37
2019-03-11T05:46:57.414Z,12.55
2019-03-11T05:52:01.641Z,18.92
2019-03-11T05:57:05.291Z,39.25
2019-03-11T06:02:08.633Z,19.73
2019-03-11T06:07:12.782Z,34.35
2019-03-11T06:12:17.974Z,17.20
2019-03-11T06:17:22.661Z,14.25
2019-03-11T06:22:28.087Z,7.25
2019-03-11T06:27:33.842Z,5.35
2019-03-11T06:32:38.265Z,2.58
2019-03-11T06:37:42.301Z,1.42
2019-03-11T06:42:46.557Z,1.80
2019-03-11T06:47:51.704Z,2.08
2019-03-11T06:52:55.305Z,7.25
2019-03-11T06:58:00.855Z,7.62
2019-03-11T07:03:04.935Z,4.33
2019-03-11T07:08:08.457Z,6.65
2019-03-11T07:13:12.064Z,8.23
2019-03-11T07:18:15.679Z,1.32
2019-03-11T07:23:19.011Z,3.20
2019-03-11T07:28:22.342Z,6.97
2019-03-11T07:33:26.366Z,8.05
2019-03-11T07:38:29.705Z,10.75
2019-03-11T07:43:32.991Z,11.95
2019-03-11T07:48:36.494Z,9.08
2019-03-11T07:53:40.021Z,6.97
2019-03-11T07:58:44.265Z,5.47
2019-03-11T08:03:47.642Z,11.68
2019-03-11T08:08:51.183Z,15.15
2019-03-11T08:13:54.520Z,16.62
2019-03-11T08:18:58.170Z,9.18
2019-03-11T08:24:01.516Z,14.18
2019-03-11T08:29:04.873Z,20.55
2019-03-11T08:34:08.218Z,18.27
2019-03-11T08:39:11.818Z,9.63
2019-03-11T08:44:15.444Z,8.48
2019-03-11T08:49:18.804Z,17.82
2019-03-11T08:54:22.889Z,12.33
2019-03-11T08:59:26.618Z,10.63
2019-03-11T09:04:29.968Z,11.70
2019-03-11T09:09:33.504Z,9.93
2019-03-11T09:14:37.499Z,7.17
2019-03-11T09:19:40.852Z,12.60
2019-03-11T09:24:44.455Z,5.50
2019-03-11T09:29:48.484Z,8.53
2019-03-11T09:34:51.921Z,8.08
2019-03-11T09:39:55.259Z,12.78
2019-03-11T09:44:59.053Z,13.50
2019-03-11T09:50:02.497Z,14.20
2019-03-11T09:55:07.492Z,15.40
2019-03-11T10:00:18.533Z,22.13
2019-03-11T10:05:23.940Z,17.87
2019-03-11T10:10:27.415Z,26.30
2019-03-11T10:15:30.727Z,27.13
2019-03-11T10:20:34.037Z,24.25
2019-03-11T10:25:37.327Z,18.07
2019-03-11T10:30:40.708Z,20.25
2019-03-11T10:35:44.583Z,20.57
2019-03-11T10:40:48.233Z,17.15
2019-03-11T10:45:52.203Z,15.98
2019-03-11T10:50:58.392Z,8.47
2019-03-11T10:56:02.079Z,8.85
2019-03-11T11:01:05.850Z,4.78
2019-03-11T11:06:13.090Z,5.25
2019-03-11T11:11:18.092Z,7.37
2019-03-11T11:16:21.404Z,17.65
2019-03-11T11:21:24.741Z,11.12
2019-03-11T11:26:28.790Z,9.05
2019-03-11T11:31:32.433Z,6.70
2019-03-11T11:36:37.679Z,5.65
2019-03-11T11:41:43.176Z,1.42
2019-03-11T11:46:47.092Z,7.35
2019-03-11T11:51:50.570Z,5.45
2019-03-11T11:56:54.653Z,7.92
2019-03-11T12:02:03.686Z,9.63
2019-03-11T12:07:04.058Z,6.12
2019-03-11T12:12:07.766Z,5.85
2019-03-11T12:17:11.117Z,9.98
2019-03-11T12:22:15.371Z,11.50
2019-03-11T12:27:18.683Z,10.05
2019-03-11T12:32:22.560Z,5.62
2019-03-11T12:37:26.597Z,4.50
2019-03-11T12:42:29.909Z,4.50
2019-03-11T12:47:34.028Z,4.37
2019-03-11T12:52:37.404Z,6.60
2019-03-11T12:57:40.788Z,7.12
2019-03-11T13:02:44.138Z,9.95
2019-03-11T13:07:48.312Z,8.58
2019-03-11T13:12:52.812Z,8.43
2019-03-11T13:18:17.895Z,9.30
2019-03-11T13:23:21.178Z,7.60
2019-03-11T13:28:25.986Z,8.68
2019-03-11T13:33:29.500Z,10.48
2019-03-11T13:38:34.430Z,10.82
2019-03-11T13:43:38.139Z,9.15
2019-03-11T13:48:41.456Z,9.05
2019-03-11T13:53:44.797Z,7.67
2019-03-11T13:58:48.084Z,5.85
2019-03-11T14:03:51.840Z,4.72
2019-03-11T14:08:56.172Z,4.85
2019-03-11T14:14:01.304Z,7.28
2019-03-11T14:19:05.642Z,8.13
2019-03-11T14:24:08.962Z,5.10
2019-03-11T14:29:12.532Z,8.10
2019-03-11T14:34:25.028Z,5.78
2019-03-11T14:39:28.397Z,9.60
2019-03-11T14:44:44.861Z,8.35
2019-03-11T14:49:48.533Z,8.10
2019-03-11T14:54:53.503Z,11.18
2019-03-11T14:59:56.844Z,16.02
2019-03-11T15:05:00.842Z,13.40
2019-03-11T15:10:05.133Z,13.55
2019-03-11T15:15:12.385Z,15.20
2019-03-11T15:25:21.208Z,17.27
2019-03-11T15:30:24.998Z,35.60
2019-03-11T15:35:28.826Z,11.18
2019-03-11T15:40:33.152Z,11.00
2019-03-11T15:45:38.844Z,12.23
2019-03-11T15:50:42.028Z,8.38
2019-03-11T15:55:45.622Z,12.50
2019-03-11T16:00:49.829Z,9.95
2019-03-11T16:05:53.356Z,15.43
2019-03-11T16:10:57.022Z,31.45
2019-03-11T16:16:00.824Z,17.12
2019-03-11T16:21:04.320Z,22.40
2019-03-11T16:26:08.379Z,11.30
2019-03-11T16:31:13.001Z,13.22
2019-03-11T16:36:17.912Z,25.20
2019-03-11T16:41:21.461Z,14.28
2019-03-11T16:46:25.471Z,12.68
2019-03-11T16:51:28.800Z,14.93
2019-03-11T16:56:32.229Z,21.20
2019-03-11T17:01:37.125Z,23.77
2019-03-11T17:06:41.036Z,23.98
2019-03-11T17:11:46.394Z,25.15
2019-03-11T17:16:52.462Z,24.12
2019-03-11T17:21:56.207Z,20.55
2019-03-11T17:27:00.032Z,22.95
2019-03-11T17:32:05.803Z,24.07
2019-03-11T17:37:09.929Z,20.95
2019-03-11T17:42:16.934Z,22.22
2019-03-11T17:47:21.465Z,25.17
2019-03-11T17:52:27.745Z,28.50
2019-03-11T17:57:32.806Z,34.27
2019-03-11T18:02:36.284Z,31.60
2019-03-11T18:07:40.247Z,35.25
2019-03-11T18:12:43.745Z,39.90
2019-03-11T18:17:47.470Z,27.52
2019-03-11T18:22:51.685Z,40.83
2019-03-11T18:27:56.711Z,39.18
2019-03-11T18:33:00.202Z,28.80
2019-03-11T18:38:04.896Z,51.05
2019-03-11T18:43:19.865Z,52.08
2019-03-11T18:48:15.478Z,19.27
2019-03-11T18:53:19.570Z,43.02
2019-03-11T18:58:23.395Z,50.60
2019-03-11T19:03:26.915Z,62.13
2019-03-11T19:08:30.720Z,30.15
2019-03-11T19:13:34.164Z,49.05
2019-03-11T19:18:37.702Z,48.10
2019-03-11T19:23:41.704Z,37.10
2019-03-11T19:28:45.309Z,30.62
2019-03-11T19:33:49.036Z,38.50
2019-03-11T19:38:52.412Z,51.30
2019-03-11T19:43:57.335Z,46.37
2019-03-11T19:49:01.214Z,42.85
2019-03-11T19:54:05.487Z,34.73
2019-03-11T19:59:08.831Z,28.05
2019-03-11T20:04:12.774Z,35.40
2019-03-11T20:09:16.798Z,30.15
2019-03-11T20:14:21.087Z,40.65
2019-03-11T20:19:25.365Z,25.70
2019-03-11T20:24:29.127Z,49.08
2019-03-11T20:29:34.044Z,39.95
2019-03-11T20:34:38.393Z,25.17
2019-03-11T20:39:41.782Z,14.87
2019-03-11T20:44:45.568Z,32.08
2019-03-11T20:49:49.031Z,40.05
2019-03-11T20:54:52.638Z,31.12
2019-03-11T20:59:56.154Z,24.18
2019-03-11T21:05:03.175Z,28.73
2019-03-11T21:10:09.718Z,44.17
2019-03-11T21:15:14.000Z,23.43
2019-03-11T21:20:17.613Z,29.05
2019-03-11T21:25:27.778Z,39.42
2019-03-11T21:30:32.641Z,30.30
2019-03-11T21:35:36.257Z,36.13
2019-03-11T21:40:39.915Z,45.10
2019-03-11T21:45:43.395Z,43.65
2019-03-11T21:50:47.258Z,53.75
2019-03-11T21:55:50.620Z,45.17
2019-03-11T22:00:54.845Z,45.30
2019-03-11T22:05:59.341Z,23.80
2019-03-11T22:11:03.105Z,32.40
2019-03-11T22:16:08.534Z,35.95
2019-03-11T22:21:26.561Z,51.75
2019-03-11T22:26:30.250Z,38.30
2019-03-11T22:31:34.000Z,41.73
2019-03-11T22:36:39.369Z,44.88
2019-03-11T22:41:43.784Z,34.00
2019-03-11T22:46:47.197Z,45.33
2019-03-11T22:51:50.714Z,52.03
2019-03-11T22:56:54.108Z,28.12
2019-03-11T23:01:57.945Z,35.48
2019-03-11T23:07:01.289Z,29.35
2019-03-11T23:12:04.654Z,27.62
2019-03-11T23:17:08.118Z,41.48
2019-03-11T23:22:11.450Z,18.35
2019-03-11T23:27:15.482Z,44.23
2019-03-11T23:32:19.075Z,35.92
2019-03-11T23:37:22.849Z,38.67
2019-03-11T23:42:26.247Z,37.80
2019-03-11T23:47:29.758Z,25.40
2019-03-11T23:52:34.017Z,28.25
2019-03-11T23:57:37.760Z,25.00
